createdAt,value
2022-12-11T00:03:51.587Z,20.73
2022-12-11T00:08:41.389Z,26.20
2022-12-11T00:25:09.620Z,24.70
2022-12-11T00:27:39.716Z,24.23
2022-12-11T00:30:10.194Z,22.23
2022-12-11T00:32:40.185Z,26.38
2022-12-11T00:35:10.612Z,22.92
2022-12-11T00:37:40.788Z,24.85
2022-12-11T00:40:11.240Z,22.75
2022-12-11T00:42:41.165Z,21.42
2022-12-11T00:45:11.922Z,23.00
2022-12-11T00:47:41.999Z,28.83
2022-12-11T00:50:11.958Z,22.23
2022-12-11T00:52:42.406Z,26.35
2022-12-11T00:55:12.867Z,22.58
2022-12-11T00:57:42.909Z,26.15
2022-12-11T01:00:14.658Z,33.42
2022-12-11T01:02:44.559Z,26.10
2022-12-11T01:05:14.610Z,26.20
2022-12-11T01:07:44.628Z,24.35
2022-12-11T01:10:27.256Z,28.77
2022-12-11T01:13:02.868Z,28.67
2022-12-11T01:15:41.105Z,26.00
2022-12-11T01:18:12.862Z,28.05
2022-12-11T01:20:44.273Z,23.60
2022-12-11T01:23:15.827Z,25.55
2022-12-11T01:25:46.187Z,25.60
2022-12-11T01:28:16.409Z,22.80
2022-12-11T01:30:46.516Z,22.52
2022-12-11T01:33:16.455Z,25.13
2022-12-11T01:35:46.436Z,28.67
2022-12-11T01:38:16.237Z,30.90
2022-12-11T01:40:50.859Z,23.58
2022-12-11T01:43:21.108Z,23.40
2022-12-11T01:45:51.587Z,18.63
2022-12-11T01:48:30.597Z,21.17
2022-12-11T01:51:06.922Z,19.15
2022-12-11T01:53:41.228Z,20.90
2022-12-11T01:56:12.000Z,22.13
2022-12-11T01:58:48.567Z,19.60
2022-12-11T02:01:34.977Z,22.60
2022-12-11T02:06:43.739Z,22.02
2022-12-11T02:09:16.678Z,16.73
2022-12-11T02:12:13.113Z,17.35
2022-12-11T02:15:07.126Z,17.63
2022-12-11T02:18:15.963Z,17.00
2022-12-11T02:21:04.284Z,24.83
2022-12-11T02:24:09.123Z,16.63
2022-12-11T02:27:17.777Z,19.92
2022-12-11T02:30:15.582Z,17.27
2022-12-11T02:33:00.139Z,18.00
2022-12-11T02:35:44.124Z,21.20
2022-12-11T02:38:22.690Z,17.52
2022-12-11T02:40:54.864Z,16.98
2022-12-11T02:43:25.552Z,16.30
2022-12-11T02:45:56.557Z,16.92
2022-12-11T02:48:27.117Z,18.73
2022-12-11T02:51:01.340Z,14.90
2022-12-11T02:53:34.249Z,20.33
2022-12-11T02:56:13.187Z,19.65
2022-12-11T02:58:55.338Z,17.55
2022-12-11T03:01:29.239Z,16.65
2022-12-11T03:04:00.347Z,16.67
2022-12-11T03:06:38.129Z,15.32
2022-12-11T03:09:09.031Z,16.90
2022-12-11T03:11:38.672Z,19.60
2022-12-11T03:14:09.146Z,20.05
2022-12-11T03:16:44.711Z,18.33
2022-12-11T03:19:37.245Z,21.02
2022-12-11T03:22:24.860Z,17.85
2022-12-11T03:25:14.612Z,17.80
2022-12-11T03:28:15.357Z,18.08
2022-12-11T03:30:46.439Z,15.38
2022-12-11T03:33:24.028Z,15.02
2022-12-11T03:36:05.123Z,15.40
2022-12-11T03:38:40.636Z,17.17
2022-12-11T03:41:12.294Z,14.85
2022-12-11T03:43:43.100Z,15.30
2022-12-11T03:46:13.642Z,15.32
2022-12-11T03:48:46.861Z,21.58
2022-12-11T03:51:18.294Z,17.70
2022-12-11T03:53:49.347Z,14.35
2022-12-11T03:56:21.661Z,15.18
2022-12-11T03:58:51.249Z,14.18
2022-12-11T04:01:21.146Z,14.52
2022-12-11T04:03:51.291Z,13.35
2022-12-11T04:06:21.149Z,14.80
2022-12-11T04:08:50.713Z,11.48
2022-12-11T04:11:39.865Z,12.43
2022-12-11T04:14:35.045Z,15.00
2022-12-11T04:17:04.819Z,12.60
2022-12-11T04:19:54.015Z,16.13
2022-12-11T04:22:43.199Z,17.83
2022-12-11T04:25:13.161Z,14.25
2022-12-11T04:27:51.891Z,12.25
2022-12-11T04:30:32.342Z,15.05
2022-12-11T04:33:03.702Z,14.48
2022-12-11T04:35:33.451Z,15.25
2022-12-11T04:38:03.027Z,15.25
2022-12-11T04:40:32.724Z,13.93
2022-12-11T04:43:02.311Z,12.88
2022-12-11T04:45:31.921Z,13.15
2022-12-11T04:48:01.586Z,13.68
2022-12-11T04:50:31.236Z,11.85
2022-12-11T04:53:00.836Z,11.43
2022-12-11T04:55:30.407Z,13.85
2022-12-11T04:57:59.908Z,12.15
2022-12-11T05:00:29.553Z,11.18
2022-12-11T05:02:59.226Z,13.65
2022-12-11T05:05:29.827Z,11.27
2022-12-11T05:08:00.287Z,11.23
2022-12-11T05:10:30.302Z,15.32
2022-12-11T05:13:00.267Z,12.70
2022-12-11T05:15:30.053Z,15.02
2022-12-11T05:17:59.971Z,14.65
2022-12-11T05:20:29.841Z,12.88
2022-12-11T05:22:59.730Z,15.88
2022-12-11T05:25:29.673Z,14.32
2022-12-11T05:27:59.794Z,14.55
2022-12-11T05:30:29.651Z,14.15
2022-12-11T05:32:59.622Z,13.68
2022-12-11T05:35:29.464Z,15.65
2022-12-11T05:38:01.358Z,12.80
2022-12-11T05:40:31.300Z,13.35
2022-12-11T05:43:01.196Z,13.90
2022-12-11T05:45:31.144Z,14.55
2022-12-11T05:48:00.991Z,12.43
2022-12-11T05:50:30.886Z,14.77
2022-12-11T05:53:00.886Z,15.35
2022-12-11T05:55:30.739Z,12.35
2022-12-11T05:58:00.992Z,12.75
2022-12-11T06:00:35.889Z,11.75
2022-12-11T06:03:06.353Z,13.90
2022-12-11T06:05:44.765Z,13.88
2022-12-11T06:08:14.945Z,13.50
2022-12-11T06:10:50.779Z,11.88
2022-12-11T06:13:20.743Z,13.18
2022-12-11T06:15:50.658Z,10.93
2022-12-11T06:18:20.741Z,12.60
2022-12-11T06:20:50.700Z,12.75
2022-12-11T06:23:20.670Z,15.93
2022-12-11T06:25:50.624Z,12.07
2022-12-11T06:28:20.492Z,12.68
2022-12-11T06:30:50.331Z,11.10
2022-12-11T06:33:20.292Z,10.98
2022-12-11T06:35:50.406Z,14.68
2022-12-11T06:38:20.430Z,12.68
2022-12-11T06:40:58.461Z,10.50
2022-12-11T06:43:28.409Z,14.23
2022-12-11T06:46:03.634Z,12.38
2022-12-11T06:48:34.936Z,11.00
2022-12-11T06:51:09.843Z,16.02
2022-12-11T06:53:40.410Z,12.20
2022-12-11T06:56:14.228Z,11.70
2022-12-11T06:58:45.706Z,16.33
2022-12-11T07:01:19.248Z,13.73
2022-12-11T07:03:49.684Z,11.85
2022-12-11T07:06:20.221Z,13.50
2022-12-11T07:08:50.101Z,15.35
2022-12-11T07:11:21.923Z,9.45
2022-12-11T07:13:51.854Z,11.75
2022-12-11T07:16:21.620Z,10.75
2022-12-11T07:18:52.969Z,11.80
2022-12-11T07:21:23.711Z,9.77
2022-12-11T07:23:53.683Z,10.98
2022-12-11T07:26:24.140Z,13.32
2022-12-11T07:28:53.745Z,12.93
2022-12-11T07:31:27.177Z,12.68
2022-12-11T07:33:58.043Z,12.77
2022-12-11T07:36:28.703Z,12.75
2022-12-11T07:38:58.356Z,10.35
2022-12-11T07:41:30.414Z,12.02
2022-12-11T07:44:02.916Z,10.25
2022-12-11T07:46:34.891Z,12.90
2022-12-11T07:49:06.621Z,12.70
2022-12-11T07:51:38.401Z,12.02
2022-12-11T07:54:10.874Z,10.40
2022-12-11T07:56:43.771Z,9.60
2022-12-11T07:59:13.882Z,9.93
2022-12-11T08:01:44.173Z,12.88
2022-12-11T08:04:17.251Z,10.82
2022-12-11T08:06:47.922Z,12.88
2022-12-11T08:09:21.222Z,12.75
2022-12-11T08:11:55.241Z,9.60
2022-12-11T08:14:25.131Z,13.10
2022-12-11T08:16:55.150Z,11.70
2022-12-11T08:19:25.175Z,12.38
2022-12-11T08:21:55.071Z,10.95
2022-12-11T08:24:24.971Z,10.23
2022-12-11T08:26:54.890Z,11.35
2022-12-11T08:29:24.866Z,13.38
2022-12-11T08:31:54.889Z,10.65
2022-12-11T08:34:24.798Z,13.48
2022-12-11T08:36:54.710Z,11.57
2022-12-11T08:39:24.697Z,11.38
2022-12-11T08:41:54.641Z,14.02
2022-12-11T08:44:26.622Z,12.02
2022-12-11T08:46:56.481Z,12.77
2022-12-11T08:49:28.656Z,12.18
2022-12-11T08:52:02.670Z,14.25
2022-12-11T08:54:32.797Z,11.15
2022-12-11T08:57:02.640Z,10.98
2022-12-11T08:59:32.500Z,13.10
2022-12-11T09:02:02.651Z,20.05
2022-12-11T09:04:32.678Z,14.27
2022-12-11T09:07:03.140Z,18.88
2022-12-11T09:09:33.539Z,12.68
2022-12-11T09:12:03.608Z,13.55
2022-12-11T09:14:33.880Z,13.45
2022-12-11T09:17:03.892Z,13.82
2022-12-11T09:19:33.894Z,11.15
2022-12-11T09:22:03.948Z,14.10
2022-12-11T09:24:33.922Z,18.17
2022-12-11T09:27:03.826Z,12.48
2022-12-11T09:29:34.093Z,13.27
2022-12-11T09:32:04.015Z,13.07
2022-12-11T09:34:33.949Z,12.63
2022-12-11T09:37:04.158Z,12.85
2022-12-11T09:39:34.138Z,18.50
2022-12-11T09:42:28.874Z,19.98
2022-12-11T09:45:04.990Z,16.27
2022-12-11T09:47:45.945Z,14.98
2022-12-11T09:50:24.977Z,16.02
2022-12-11T09:53:19.132Z,15.18
2022-12-11T09:56:18.581Z,15.43
2022-12-11T09:59:20.992Z,17.38
2022-12-11T10:02:20.314Z,19.63
2022-12-11T10:05:18.631Z,15.57
2022-12-11T10:08:10.392Z,14.20
2022-12-11T10:11:07.998Z,13.88
2022-12-11T10:14:04.856Z,17.00
2022-12-11T10:16:52.506Z,15.50
2022-12-11T10:19:29.611Z,12.85
2022-12-11T10:22:01.209Z,19.67
2022-12-11T10:27:40.563Z,22.77
2022-12-11T10:30:20.749Z,16.00
2022-12-11T10:33:15.786Z,14.05
2022-12-11T10:35:50.886Z,16.30
2022-12-11T10:38:45.264Z,18.20
2022-12-11T10:41:22.961Z,20.70
2022-12-11T10:43:54.619Z,20.30
2022-12-11T10:46:28.091Z,13.65
2022-12-11T10:49:00.670Z,20.45
2022-12-11T10:51:40.267Z,16.52
2022-12-11T10:54:39.872Z,14.98
2022-12-11T10:57:12.173Z,23.05
2022-12-11T10:59:52.620Z,20.98
2022-12-11T11:02:49.198Z,19.67
2022-12-11T11:05:39.056Z,21.02
2022-12-11T11:08:21.810Z,24.13
2022-12-11T11:11:03.227Z,20.67
2022-12-11T11:13:34.626Z,24.92
2022-12-11T11:16:09.092Z,32.90
2022-12-11T11:18:39.582Z,28.70
2022-12-11T11:21:17.836Z,31.60
2022-12-11T11:23:53.197Z,30.58
2022-12-11T11:26:38.411Z,28.45
2022-12-11T11:29:36.571Z,29.23
2022-12-11T11:32:29.899Z,43.03
2022-12-11T11:35:17.326Z,28.52
2022-12-11T11:38:04.428Z,32.08
2022-12-11T11:41:07.595Z,35.80
2022-12-11T11:43:50.885Z,36.63
2022-12-11T11:46:42.457Z,41.80
2022-12-11T11:49:51.153Z,39.13
2022-12-11T11:52:38.984Z,37.38
2022-12-11T11:58:16.595Z,34.72
2022-12-11T12:00:46.950Z,35.70
2022-12-11T12:03:20.265Z,33.85
2022-12-11T12:06:19.484Z,31.98
2022-12-11T12:09:14.715Z,31.25
2022-12-11T12:12:27.552Z,41.45
2022-12-11T12:15:37.689Z,45.45
2022-12-11T12:18:35.504Z,42.47
2022-12-11T12:24:12.876Z,38.05
2022-12-11T12:27:17.610Z,47.08
2022-12-11T12:30:22.380Z,46.08
2022-12-11T12:33:27.716Z,44.72
2022-12-11T12:36:26.390Z,51.45
2022-12-11T12:39:34.063Z,48.35
2022-12-11T12:45:24.276Z,48.15
2022-12-11T12:47:54.235Z,41.95
2022-12-11T12:50:27.130Z,44.33
2022-12-11T12:52:58.841Z,42.67
2022-12-11T12:55:31.240Z,42.55
2022-12-11T12:58:04.804Z,46.08
2022-12-11T13:00:45.180Z,43.22
2022-12-11T13:03:22.515Z,40.58
2022-12-11T13:06:12.042Z,49.80
2022-12-11T13:08:49.117Z,43.92
2022-12-11T13:11:23.188Z,37.92
2022-12-11T13:14:32.009Z,41.10
2022-12-11T13:17:33.531Z,42.03
2022-12-11T13:20:24.510Z,42.92
2022-12-11T13:23:18.261Z,37.47
2022-12-11T13:25:53.226Z,30.38
2022-12-11T13:28:31.719Z,35.78
2022-12-11T13:31:32.257Z,34.35
2022-12-11T13:34:16.858Z,35.78
2022-12-11T13:36:53.937Z,40.67
2022-12-11T13:39:33.230Z,36.53
2022-12-11T13:42:11.924Z,34.30
2022-12-11T13:44:44.906Z,38.03
2022-12-11T13:47:19.307Z,32.30
2022-12-11T13:49:52.124Z,33.10
2022-12-11T13:52:27.421Z,34.25
2022-12-11T13:55:00.981Z,34.20
2022-12-11T13:57:30.895Z,38.08
2022-12-11T14:00:01.325Z,34.00
2022-12-11T14:02:41.899Z,34.65
2022-12-11T14:05:15.006Z,39.55
2022-12-11T14:07:49.941Z,31.63
2022-12-11T14:10:24.689Z,32.78
2022-12-11T14:13:32.650Z,34.72
2022-12-11T14:16:03.527Z,27.73
2022-12-11T14:18:37.124Z,34.55
2022-12-11T14:21:08.655Z,33.33
2022-12-11T14:23:39.956Z,32.88
2022-12-11T14:26:30.547Z,29.60
2022-12-11T14:29:00.639Z,27.60
2022-12-11T14:31:42.470Z,27.42
2022-12-11T14:34:32.599Z,36.17
2022-12-11T14:37:05.676Z,29.00
2022-12-11T14:39:43.173Z,31.80
2022-12-11T14:42:31.201Z,34.80
2022-12-11T14:45:10.650Z,34.30
2022-12-11T14:47:46.632Z,28.15
2022-12-11T14:50:29.497Z,35.35
2022-12-11T14:53:05.770Z,37.17
2022-12-11T14:55:38.017Z,39.00
2022-12-11T14:58:21.001Z,34.10
2022-12-11T15:01:23.637Z,32.20
2022-12-11T15:04:03.533Z,33.55
2022-12-11T15:06:36.291Z,30.35
2022-12-11T15:09:26.967Z,33.97
2022-12-11T15:12:00.338Z,37.72
2022-12-11T15:14:31.301Z,34.83
2022-12-11T15:17:01.275Z,39.70
2022-12-11T15:19:34.919Z,40.45
2022-12-11T15:22:08.541Z,27.60
2022-12-11T15:24:44.619Z,31.20
2022-12-11T15:27:39.419Z,28.90
2022-12-11T15:30:30.198Z,34.40
2022-12-11T15:33:23.818Z,30.52
2022-12-11T15:36:32.560Z,31.58
2022-12-11T15:39:02.513Z,32.97
2022-12-11T15:41:35.006Z,32.92
2022-12-11T15:46:25.751Z,29.17
2022-12-11T15:48:55.537Z,35.38
2022-12-11T15:51:25.300Z,37.50
2022-12-11T16:00:55.060Z,34.20
2022-12-11T16:05:42.531Z,26.33
2022-12-11T16:08:16.918Z,34.42
2022-12-11T16:10:47.487Z,30.13
2022-12-11T16:13:17.211Z,32.22
2022-12-11T16:15:50.413Z,29.88
2022-12-11T16:18:25.185Z,35.92
2022-12-11T16:20:55.129Z,30.55
2022-12-11T16:23:24.663Z,28.33
2022-12-11T16:25:54.194Z,29.42
2022-12-11T16:28:23.925Z,31.20
2022-12-11T16:30:53.498Z,31.15
2022-12-11T16:33:23.161Z,25.88
2022-12-11T16:45:20.705Z,27.40
2022-12-11T16:57:09.090Z,25.70
2022-12-11T16:59:38.626Z,26.70
2022-12-11T17:06:47.966Z,29.70
2022-12-11T17:09:17.491Z,27.83
2022-12-11T17:11:47.066Z,29.80
2022-12-11T17:14:17.142Z,28.20
2022-12-11T18:33:37.702Z,32.10
2022-12-11T18:36:08.460Z,39.55
2022-12-11T18:38:38.946Z,25.00
2022-12-11T18:41:10.898Z,28.60
2022-12-11T18:43:41.042Z,26.15
2022-12-11T18:46:15.676Z,33.17
2022-12-11T18:48:46.990Z,27.45
2022-12-11T18:51:20.293Z,33.22
2022-12-11T18:53:50.397Z,31.35
2022-12-11T18:56:21.911Z,30.85
2022-12-11T18:58:51.881Z,29.55
2022-12-11T19:01:27.900Z,27.80
2022-12-11T19:04:04.146Z,30.20
2022-12-11T19:06:37.022Z,32.45
2022-12-11T19:09:08.287Z,30.90
2022-12-11T19:11:40.648Z,29.15
2022-12-11T19:14:11.222Z,27.98
2022-12-11T19:16:44.110Z,25.77
2022-12-11T19:19:21.904Z,28.52
2022-12-11T19:21:52.380Z,32.05
2022-12-11T19:24:24.957Z,27.77
2022-12-11T19:26:54.940Z,28.13
2022-12-11T19:29:28.301Z,27.23
2022-12-11T19:31:58.821Z,29.00
2022-12-11T19:34:29.840Z,21.73
2022-12-11T19:36:59.746Z,33.25
2022-12-11T19:39:29.808Z,29.33
2022-12-11T19:41:59.687Z,28.42
2022-12-11T19:44:29.633Z,36.55
2022-12-11T19:46:59.668Z,34.67
2022-12-11T19:49:29.623Z,39.47
2022-12-11T19:51:59.811Z,39.08
2022-12-11T19:54:29.838Z,31.75
2022-12-11T19:56:59.742Z,39.47
2022-12-11T19:59:29.730Z,32.42
2022-12-11T20:04:21.629Z,28.17
2022-12-11T20:06:51.743Z,33.03
2022-12-11T20:09:21.802Z,29.50
2022-12-11T20:11:51.890Z,26.35
2022-12-11T20:14:26.036Z,29.45
2022-12-11T20:17:14.560Z,25.33
2022-12-11T20:19:45.338Z,25.75
2022-12-11T20:22:15.240Z,30.33
2022-12-11T20:24:45.190Z,30.73
2022-12-11T20:27:15.162Z,29.15
2022-12-11T20:29:45.056Z,28.23
2022-12-11T20:32:15.021Z,27.95
2022-12-11T20:34:44.931Z,27.60
2022-12-11T20:37:15.538Z,36.08
2022-12-11T20:39:45.101Z,30.85
2022-12-11T20:42:14.779Z,28.00
2022-12-11T20:44:48.751Z,28.30
2022-12-11T20:47:21.390Z,28.08
2022-12-11T20:49:52.533Z,39.00
2022-12-11T20:52:22.336Z,27.75
2022-12-11T20:54:51.972Z,27.30
2022-12-11T20:57:21.667Z,24.27
2022-12-11T20:59:51.364Z,27.30
2022-12-11T21:02:21.239Z,28.88
2022-12-11T21:04:51.163Z,26.30
2022-12-11T21:07:21.061Z,24.35
2022-12-11T21:09:50.677Z,27.83
2022-12-11T21:12:20.339Z,25.50
2022-12-11T21:14:49.873Z,27.23
2022-12-11T21:17:19.568Z,30.50
2022-12-11T21:19:49.300Z,25.10
2022-12-11T21:22:19.323Z,21.60
2022-12-11T21:24:48.928Z,22.88
2022-12-11T21:27:18.566Z,23.00
2022-12-11T21:32:09.283Z,26.02
2022-12-11T21:34:39.521Z,21.08
2022-12-11T21:37:09.209Z,31.83
2022-12-11T21:39:40.016Z,23.85
2022-12-11T22:52:07.293Z,32.53
2022-12-11T22:54:39.665Z,46.47
2022-12-11T22:59:29.625Z,45.00
2022-12-11T23:27:36.084Z,37.60
2022-12-11T23:53:24.992Z,35.85
2022-12-11T23:58:14.412Z,32.90
